< < Back
Terminal Aerodrome Forecast


Current Version              Previous Versions:   1  2  3  4  5  6  7  8  9  

Terminal Aerodrome Forecast

664
FTUS44 KMRX 042332
TAFTYS
TAF
KTYS 042332Z 0500/0524 26010KT P6SM VCSH SCT050 BKN060
      TEMPO 0500/0502 SHRA SCT025 OVC035
     FM050300 26007KT P6SM SCT040
     FM051200 27010G17KT P6SM VCSH BKN035=

Latest METAR

210
SAUS80 KWBC 052000
MTRTYS
METAR KTYS 051953Z 30007KT 10SM SCT033 BKN047 BKN250 10/06 A2979 RMK AO2
RAB37E53 SLP086 P0007 T01000061


USA.gov is the U.S. government's official web portal to all federal, state and local government web resources and services.